Time;durP1;ratioP1;P1;durP2;ratioP2;P2;SDS_P1;SDS_P2;PMS_P1;PMS_P2;Temp;Humidity;BMP_temperature;BMP_pressure;BME280_temperature;BME280_humidity;BME280_pressure;Samples;Min_cycle;Max_cycle;Signal;HPM_P1;HPM_P2
2023/07/15 00:01:19;;;;;;;3.67;3.33;;;;;;;;;;5070907;28;20233;-55
2023/07/15 00:03:49;;;;;;;2.63;2.43;;;;;;;;;;5069842;28;20176;-55
2023/07/15 00:06:15;;;;;;;2.77;2.40;;;;;;;;;;5070353;28;20184;-57
2023/07/15 00:08:41;;;;;;;3.23;2.67;;;;;;;;;;5070520;28;20210;-56
2023/07/15 00:11:21;;;;;;;4.67;2.60;;;;;;;;;;5070721;28;20156;-56
2023/07/15 00:13:47;;;;;;;2.60;2.40;;;;;;;;;;5070462;28;20185;-57
2023/07/15 00:16:14;;;;;;;3.87;2.70;;;;;;;;;;5070795;28;20172;-56
2023/07/15 00:18:40;;;;;;;3.47;2.23;;;;;;;;;;5069337;28;20165;-56
2023/07/15 00:21:20;;;;;;;3.50;2.43;;;;;;;;;;5070264;28;20266;-57
2023/07/15 00:23:53;;;;;;;2.70;2.50;;;;;;;;;;5070257;28;20254;-57
2023/07/15 00:26:20;;;;;;;2.70;2.50;;;;;;;;;;5070293;28;20176;-56
2023/07/15 00:28:49;;;;;;;3.30;3.00;;;;;;;;;;5069955;28;20196;-57
2023/07/15 00:31:17;;;;;;;2.70;2.50;;;;;;;;;;5052112;28;20174;-57
2023/07/15 00:33:44;;;;;;;3.13;2.60;;;;;;;;;;5068822;28;20171;-56
2023/07/15 00:36:11;;;;;;;4.17;2.90;;;;;;;;;;5069867;28;20161;-56
2023/07/15 00:38:37;;;;;;;4.43;2.70;;;;;;;;;;5070301;28;20171;-55
2023/07/15 00:41:05;;;;;;;3.23;2.93;;;;;;;;;;5070218;28;20165;-57
2023/07/15 00:43:50;;;;;;;3.43;2.70;;;;;;;;;;5069868;28;20185;-57
2023/07/15 00:46:16;;;;;;;3.27;2.97;;;;;;;;;;5070175;28;20185;-56
2023/07/15 00:48:46;;;;;;;3.97;2.67;;;;;;;;;;5050407;28;20196;-56
2023/07/15 00:51:12;;;;;;;2.90;2.70;;;;;;;;;;5069799;28;20276;-57
2023/07/15 00:53:38;;;;;;;2.97;2.73;;;;;;;;;;5051474;28;20167;-56
2023/07/15 00:56:07;;;;;;;3.03;2.67;;;;;;;;;;5069551;28;20692;-56
2023/07/15 00:58:33;;;;;;;2.77;2.57;;;;;;;;;;5068512;28;20241;-56
2023/07/15 01:00:59;;;;;;;2.50;2.30;;;;;;;;;;5069976;28;20521;-55
2023/07/15 01:03:26;;;;;;;3.00;2.70;;;;;;;;;;5068143;28;20169;-56
2023/07/15 01:05:52;;;;;;;2.47;2.27;;;;;;;;;;5069683;28;20492;-57
2023/07/15 01:08:18;;;;;;;2.77;2.57;;;;;;;;;;5069203;28;20193;-57
2023/07/15 01:10:44;;;;;;;2.80;2.60;;;;;;;;;;5069623;28;20169;-57
2023/07/15 01:13:10;;;;;;;3.20;2.70;;;;;;;;;;5069171;28;20224;-56
2023/07/15 01:15:37;;;;;;;2.97;2.60;;;;;;;;;;5069711;28;20752;-56
2023/07/15 01:18:03;;;;;;;3.70;2.73;;;;;;;;;;5068682;28;20688;-56
2023/07/15 01:20:30;;;;;;;2.80;2.60;;;;;;;;;;5069275;28;20161;-58
2023/07/15 01:22:56;;;;;;;2.73;2.33;;;;;;;;;;5069063;28;20180;-57
2023/07/15 01:25:22;;;;;;;4.03;2.80;;;;;;;;;;5069271;28;20184;-57
2023/07/15 01:27:49;;;;;;;3.10;2.80;;;;;;;;;;5068921;28;20204;-56
2023/07/15 01:30:17;;;;;;;4.10;3.80;;;;;;;;;;5069199;28;20208;-54
2023/07/15 01:32:43;;;;;;;3.10;2.77;;;;;;;;;;5067832;28;20218;-56
2023/07/15 01:35:10;;;;;;;2.77;2.57;;;;;;;;;;5069026;28;20586;-56
2023/07/15 01:37:36;;;;;;;5.47;2.83;;;;;;;;;;5068866;28;20188;-57
2023/07/15 01:40:05;;;;;;;2.77;2.40;;;;;;;;;;5068898;28;20181;-57
2023/07/15 01:42:31;;;;;;;4.27;2.57;;;;;;;;;;5068703;28;20168;-56
2023/07/15 01:44:58;;;;;;;3.30;2.77;;;;;;;;;;5069216;28;20201;-56
2023/07/15 01:47:24;;;;;;;4.07;3.13;;;;;;;;;;5067935;28;20221;-57
2023/07/15 01:49:50;;;;;;;2.83;2.53;;;;;;;;;;5068545;28;20174;-56
2023/07/15 01:52:16;;;;;;;2.70;2.50;;;;;;;;;;5068720;28;20184;-56
2023/07/15 01:54:45;;;;;;;4.00;2.37;;;;;;;;;;5069108;28;20182;-57
2023/07/15 01:57:12;;;;;;;4.67;3.30;;;;;;;;;;5068324;28;20235;-56
2023/07/15 01:59:38;;;;;;;3.40;2.50;;;;;;;;;;5068745;28;20164;-58
2023/07/15 02:02:05;;;;;;;2.50;2.30;;;;;;;;;;5067918;28;20180;-59
2023/07/15 02:04:31;;;;;;;3.10;2.80;;;;;;;;;;5068023;28;20248;-56
2023/07/15 02:06:58;;;;;;;3.30;3.00;;;;;;;;;;5068603;28;20233;-57
2023/07/15 02:09:24;;;;;;;3.40;2.80;;;;;;;;;;5070488;28;20581;-56
2023/07/15 02:11:50;;;;;;;2.97;2.77;;;;;;;;;;5072669;28;20200;-57
2023/07/15 02:14:16;;;;;;;3.87;2.77;;;;;;;;;;5073078;28;20562;-56
2023/07/15 02:16:42;;;;;;;3.07;2.83;;;;;;;;;;5053803;28;20184;-56
2023/07/15 02:19:10;;;;;;;3.00;2.77;;;;;;;;;;5072062;28;20184;-56
2023/07/15 02:21:37;;;;;;;3.13;2.83;;;;;;;;;;5072515;28;20608;-57
2023/07/15 02:24:03;;;;;;;2.80;2.60;;;;;;;;;;5072435;28;20167;-57
2023/07/15 02:26:30;;;;;;;2.93;2.67;;;;;;;;;;5072390;28;20633;-56
2023/07/15 02:28:56;;;;;;;2.57;2.37;;;;;;;;;;5072295;28;20212;-57
2023/07/15 02:31:23;;;;;;;3.03;2.83;;;;;;;;;;5072556;28;20327;-55
2023/07/15 02:33:49;;;;;;;3.30;3.10;;;;;;;;;;5071129;28;20270;-56
2023/07/15 02:36:16;;;;;;;2.87;2.67;;;;;;;;;;5072521;28;20627;-57
2023/07/15 02:38:42;;;;;;;6.77;2.80;;;;;;;;;;5072298;28;20259;-56
2023/07/15 02:41:08;;;;;;;3.33;2.53;;;;;;;;;;5054275;28;20215;-57
2023/07/15 02:43:34;;;;;;;3.00;2.80;;;;;;;;;;5053773;28;20194;-56
2023/07/15 02:46:01;;;;;;;2.90;2.70;;;;;;;;;;5072481;28;20704;-57
2023/07/15 02:48:28;;;;;;;3.77;2.53;;;;;;;;;;5070544;28;20253;-56
2023/07/15 02:50:55;;;;;;;2.97;2.67;;;;;;;;;;5072306;28;20168;-57
2023/07/15 02:53:21;;;;;;;4.20;2.63;;;;;;;;;;5071749;28;20181;-56
2023/07/15 02:55:48;;;;;;;6.63;2.63;;;;;;;;;;5071919;28;20185;-57
2023/07/15 02:58:14;;;;;;;3.17;2.87;;;;;;;;;;5071558;28;20295;-56
2023/07/15 03:00:41;;;;;;;3.00;2.80;;;;;;;;;;5053724;28;20188;-57
2023/07/15 03:03:09;;;;;;;3.37;3.17;;;;;;;;;;5071085;28;20161;-58
2023/07/15 03:05:36;;;;;;;4.63;3.03;;;;;;;;;;5057416;28;20284;-57
2023/07/15 03:08:03;;;;;;;3.83;2.77;;;;;;;;;;5051388;28;20197;-56
2023/07/15 03:10:29;;;;;;;3.27;3.00;;;;;;;;;;5052094;28;20166;-55
2023/07/15 03:12:55;;;;;;;3.33;3.03;;;;;;;;;;5050306;28;20170;-56
2023/07/15 03:15:22;;;;;;;3.23;2.90;;;;;;;;;;5051454;28;20182;-56
2023/07/15 03:17:49;;;;;;;3.30;2.93;;;;;;;;;;5050392;28;20517;-56
2023/07/15 03:20:20;;;;;;;4.10;3.10;;;;;;;;;;5050723;28;20173;-57
2023/07/15 03:22:47;;;;;;;2.83;2.63;;;;;;;;;;5051179;28;20170;-56
2023/07/15 03:25:14;;;;;;;2.60;2.40;;;;;;;;;;5051314;28;20189;-56
2023/07/15 03:27:41;;;;;;;5.43;3.13;;;;;;;;;;5051127;28;20255;-56
2023/07/15 03:30:08;;;;;;;3.13;2.73;;;;;;;;;;5051043;28;20166;-57
2023/07/15 03:32:36;;;;;;;3.33;3.03;;;;;;;;;;5050302;28;20603;-57
2023/07/15 03:35:05;;;;;;;3.10;2.80;;;;;;;;;;5050542;28;20169;-57
2023/07/15 03:37:32;;;;;;;3.40;2.63;;;;;;;;;;5048358;28;20217;-56
2023/07/15 03:39:58;;;;;;;4.23;3.10;;;;;;;;;;5050668;28;20166;-57
2023/07/15 03:42:25;;;;;;;4.73;2.40;;;;;;;;;;5051304;28;20591;-57
2023/07/15 03:44:52;;;;;;;3.33;2.53;;;;;;;;;;5050864;28;20192;-57
2023/07/15 03:47:18;;;;;;;3.10;2.67;;;;;;;;;;5050202;28;20201;-56
2023/07/15 03:49:45;;;;;;;2.90;2.60;;;;;;;;;;5050513;28;20208;-57
2023/07/15 03:52:11;;;;;;;3.20;2.90;;;;;;;;;;5050804;28;20173;-57
2023/07/15 03:54:37;;;;;;;3.83;2.80;;;;;;;;;;5051160;28;20169;-57
2023/07/15 03:57:04;;;;;;;2.50;2.30;;;;;;;;;;5050822;28;20221;-57
2023/07/15 03:59:30;;;;;;;2.93;2.63;;;;;;;;;;5050543;28;20182;-60
2023/07/15 04:01:56;;;;;;;5.53;3.23;;;;;;;;;;5050550;28;20566;-57
2023/07/15 04:04:22;;;;;;;3.13;2.70;;;;;;;;;;5054233;28;20203;-58
2023/07/15 04:06:52;;;;;;;4.27;3.27;;;;;;;;;;5069701;28;20967;-57
2023/07/15 04:09:18;;;;;;;4.17;3.37;;;;;;;;;;5070949;28;20613;-57
2023/07/15 04:11:44;;;;;;;2.83;2.63;;;;;;;;;;5052535;28;20271;-57
2023/07/15 04:14:14;;;;;;;4.17;2.43;;;;;;;;;;5052598;28;20211;-58
2023/07/15 04:16:41;;;;;;;2.67;2.47;;;;;;;;;;5069970;28;20161;-57
2023/07/15 04:19:07;;;;;;;2.97;2.73;;;;;;;;;;5069699;28;20769;-57
2023/07/15 04:21:33;;;;;;;2.57;2.37;;;;;;;;;;5070415;28;20807;-57
2023/07/15 04:23:59;;;;;;;3.93;3.17;;;;;;;;;;5070351;28;20163;-57
2023/07/15 04:26:27;;;;;;;2.40;2.20;;;;;;;;;;5070249;28;20215;-57
2023/07/15 04:29:00;;;;;;;2.50;2.30;;;;;;;;;;5069792;28;20695;-57
2023/07/15 04:31:27;;;;;;;3.77;2.83;;;;;;;;;;5070371;28;20176;-57
2023/07/15 04:33:54;;;;;;;3.00;2.80;;;;;;;;;;5067783;28;20527;-59
2023/07/15 04:36:21;;;;;;;2.73;2.50;;;;;;;;;;5070084;28;20176;-57
2023/07/15 04:38:49;;;;;;;3.67;3.10;;;;;;;;;;5069832;28;20166;-56
2023/07/15 04:41:16;;;;;;;2.77;2.57;;;;;;;;;;5070046;28;20187;-58
2023/07/15 04:43:44;;;;;;;4.23;2.47;;;;;;;;;;5069660;28;20190;-58
2023/07/15 04:46:11;;;;;;;4.17;3.87;;;;;;;;;;5069940;28;20266;-57
2023/07/15 04:48:38;;;;;;;3.07;2.80;;;;;;;;;;5068256;28;20211;-58
2023/07/15 04:51:04;;;;;;;2.63;2.42;;;;;;;;;;5069537;28;20411;-57
2023/07/15 04:53:31;;;;;;;2.90;2.70;;;;;;;;;;5069756;28;20583;-58
2023/07/15 04:55:57;;;;;;;3.87;2.77;;;;;;;;;;5069587;28;20197;-57
2023/07/15 04:58:23;;;;;;;3.23;2.60;;;;;;;;;;5051276;28;20361;-57
2023/07/15 05:00:51;;;;;;;3.90;3.60;;;;;;;;;;5051643;28;20210;-57
2023/07/15 05:03:18;;;;;;;3.33;2.63;;;;;;;;;;5068566;28;20177;-57
2023/07/15 05:05:46;;;;;;;4.60;2.50;;;;;;;;;;5054003;28;20202;-57
2023/07/15 05:08:15;;;;;;;2.70;2.50;;;;;;;;;;5049579;28;20732;-57
2023/07/15 05:10:42;;;;;;;3.50;2.90;;;;;;;;;;5049445;28;20215;-57
2023/07/15 05:13:08;;;;;;;2.80;2.60;;;;;;;;;;5049281;28;20418;-58
2023/07/15 05:15:38;;;;;;;3.10;2.50;;;;;;;;;;5049445;28;20167;-56
2023/07/15 05:18:06;;;;;;;2.83;2.57;;;;;;;;;;5049160;28;20304;-57
2023/07/15 05:20:37;;;;;;;3.33;2.80;;;;;;;;;;5049498;28;20261;-57
2023/07/15 05:23:03;;;;;;;5.00;2.97;;;;;;;;;;5049315;28;20584;-57
2023/07/15 05:25:30;;;;;;;2.80;2.60;;;;;;;;;;5049154;28;20219;-58
2023/07/15 05:27:56;;;;;;;3.03;2.50;;;;;;;;;;5047962;28;20201;-57
2023/07/15 05:30:23;;;;;;;3.37;2.80;;;;;;;;;;5049360;28;20636;-56
2023/07/15 05:32:49;;;;;;;3.37;3.10;;;;;;;;;;5048589;28;20512;-57
2023/07/15 05:35:15;;;;;;;5.33;2.60;;;;;;;;;;5048572;28;20166;-56
2023/07/15 05:37:42;;;;;;;3.77;2.73;;;;;;;;;;5048974;28;20178;-55
2023/07/15 05:40:09;;;;;;;4.07;2.40;;;;;;;;;;5048795;28;20166;-56
2023/07/15 05:42:45;;;;;;;4.93;2.43;;;;;;;;;;5048837;28;20173;-56
2023/07/15 05:45:12;;;;;;;2.57;2.37;;;;;;;;;;5048427;28;20175;-56
2023/07/15 05:47:39;;;;;;;2.77;2.53;;;;;;;;;;5046532;28;20224;-56
2023/07/15 05:50:07;;;;;;;2.60;2.37;;;;;;;;;;5048503;28;20676;-57
2023/07/15 05:52:37;;;;;;;2.93;2.73;;;;;;;;;;5048811;28;20170;-56
2023/07/15 05:55:04;;;;;;;2.67;2.47;;;;;;;;;;5048430;28;20538;-57
2023/07/15 05:57:30;;;;;;;3.63;2.63;;;;;;;;;;5048559;28;20324;-56
2023/07/15 05:59:58;;;;;;;3.07;2.50;;;;;;;;;;5049043;28;20235;-58
2023/07/15 06:02:29;;;;;;;2.60;2.40;;;;;;;;;;5047974;28;20537;-57
2023/07/15 06:04:55;;;;;;;3.60;2.67;;;;;;;;;;5056356;28;20192;-57
2023/07/15 06:07:22;;;;;;;5.70;2.40;;;;;;;;;;5068287;28;20260;-57
2023/07/15 06:09:52;;;;;;;2.73;2.40;;;;;;;;;;5068286;28;20252;-56
2023/07/15 06:12:18;;;;;;;3.60;3.30;;;;;;;;;;5068419;28;20644;-57
2023/07/15 06:14:45;;;;;;;2.70;2.50;;;;;;;;;;5068296;28;20161;-56
2023/07/15 06:17:11;;;;;;;3.37;3.00;;;;;;;;;;5068107;28;20641;-56
2023/07/15 06:19:38;;;;;;;4.10;2.30;;;;;;;;;;5068437;28;20518;-57
2023/07/15 06:22:05;;;;;;;4.33;2.87;;;;;;;;;;5050308;28;20207;-56
2023/07/15 06:24:32;;;;;;;3.43;2.63;;;;;;;;;;5068571;28;20238;-57
2023/07/15 06:26:58;;;;;;;3.27;2.70;;;;;;;;;;5068573;28;20192;-56
2023/07/15 06:29:24;;;;;;;4.30;2.93;;;;;;;;;;5068496;28;20230;-57
2023/07/15 06:31:51;;;;;;;3.47;2.83;;;;;;;;;;5067720;28;20161;-58
2023/07/15 06:34:18;;;;;;;3.00;2.70;;;;;;;;;;5049272;28;20679;-57
2023/07/15 06:36:45;;;;;;;2.90;2.60;;;;;;;;;;5068553;28;20247;-57
2023/07/15 06:39:11;;;;;;;3.33;2.70;;;;;;;;;;5067895;28;20157;-57
2023/07/15 06:41:38;;;;;;;2.87;2.47;;;;;;;;;;5068444;28;20171;-57
2023/07/15 06:44:05;;;;;;;2.43;2.23;;;;;;;;;;5068504;28;20184;-57
2023/07/15 06:46:33;;;;;;;4.50;2.87;;;;;;;;;;5068372;28;20169;-58
2023/07/15 06:49:00;;;;;;;2.90;2.60;;;;;;;;;;5067593;28;20639;-57
2023/07/15 06:51:26;;;;;;;5.27;2.73;;;;;;;;;;5068512;28;20213;-57
2023/07/15 06:53:53;;;;;;;3.40;2.53;;;;;;;;;;5067923;28;20227;-57
2023/07/15 06:56:19;;;;;;;3.67;3.10;;;;;;;;;;5051530;28;20182;-57
2023/07/15 06:58:45;;;;;;;4.60;3.07;;;;;;;;;;5071614;28;20225;-59
2023/07/15 07:01:12;;;;;;;2.80;2.60;;;;;;;;;;5072194;28;20251;-58
2023/07/15 07:03:38;;;;;;;5.00;3.07;;;;;;;;;;5052284;28;20185;-56
2023/07/15 07:06:05;;;;;;;3.20;2.80;;;;;;;;;;5053420;28;20282;-57
2023/07/15 07:08:32;;;;;;;2.93;2.73;;;;;;;;;;5071308;28;20355;-58
2023/07/15 07:10:58;;;;;;;3.73;2.77;;;;;;;;;;5072098;28;20538;-57
2023/07/15 07:13:25;;;;;;;3.00;2.80;;;;;;;;;;5071418;28;20230;-57
2023/07/15 07:15:51;;;;;;;5.57;2.77;;;;;;;;;;5071545;28;20649;-57
2023/07/15 07:18:18;;;;;;;3.57;2.37;;;;;;;;;;5070382;28;20178;-56
2023/07/15 07:20:44;;;;;;;3.13;2.90;;;;;;;;;;5071321;28;20651;-56
2023/07/15 07:23:10;;;;;;;2.93;2.73;;;;;;;;;;5053434;28;20214;-55
2023/07/15 07:25:37;;;;;;;3.63;2.70;;;;;;;;;;5071302;28;20188;-56
2023/07/15 07:28:03;;;;;;;5.05;2.80;;;;;;;;;;5070727;28;20438;-57
2023/07/15 07:30:30;;;;;;;2.93;2.73;;;;;;;;;;5053352;28;20173;-56
2023/07/15 07:32:57;;;;;;;3.63;2.37;;;;;;;;;;5070796;28;20653;-56
2023/07/15 07:35:25;;;;;;;2.63;2.43;;;;;;;;;;5070901;28;20164;-56
2023/07/15 07:37:54;;;;;;;2.70;2.50;;;;;;;;;;5070631;28;20185;-57
2023/07/15 07:40:24;;;;;;;3.13;2.73;;;;;;;;;;5070757;28;20191;-58
2023/07/15 07:42:50;;;;;;;2.87;2.53;;;;;;;;;;5071227;28;20174;-57
2023/07/15 07:45:17;;;;;;;2.63;2.20;;;;;;;;;;5071185;28;20183;-56
2023/07/15 07:47:49;;;;;;;2.63;2.43;;;;;;;;;;5070380;28;20189;-58
2023/07/15 07:50:17;;;;;;;3.53;2.60;;;;;;;;;;5070616;28;20563;-57
2023/07/15 07:52:47;;;;;;;3.93;2.20;;;;;;;;;;5070889;28;20158;-57
2023/07/15 07:55:14;;;;;;;3.53;2.20;;;;;;;;;;5071402;28;20174;-57
2023/07/15 07:57:40;;;;;;;2.40;2.20;;;;;;;;;;5070097;28;20229;-57
2023/07/15 08:00:06;;;;;;;2.57;2.37;;;;;;;;;;5070350;28;20218;-58
2023/07/15 08:02:33;;;;;;;3.67;2.40;;;;;;;;;;5068648;28;20183;-57
2023/07/15 08:04:59;;;;;;;2.57;2.37;;;;;;;;;;5069071;28;20207;-58
2023/07/15 08:07:26;;;;;;;2.50;2.30;;;;;;;;;;5069734;28;20181;-56
2023/07/15 08:09:52;;;;;;;5.00;2.83;;;;;;;;;;5069630;28;20177;-57
2023/07/15 08:12:18;;;;;;;3.97;2.93;;;;;;;;;;5069667;28;20288;-58
2023/07/15 08:14:45;;;;;;;2.57;2.33;;;;;;;;;;5052781;28;20771;-58
2023/07/15 08:17:12;;;;;;;2.73;2.53;;;;;;;;;;5051593;28;20176;-57
2023/07/15 08:19:38;;;;;;;2.90;2.67;;;;;;;;;;5070019;28;20586;-58
2023/07/15 08:22:04;;;;;;;5.97;2.60;;;;;;;;;;5070210;28;20180;-58
2023/07/15 08:24:31;;;;;;;2.67;2.47;;;;;;;;;;5070955;28;20439;-57
2023/07/15 08:26:57;;;;;;;5.13;3.10;;;;;;;;;;5070471;28;20621;-57
2023/07/15 08:29:23;;;;;;;4.93;2.43;;;;;;;;;;5070783;28;20201;-57
2023/07/15 08:31:52;;;;;;;2.63;2.43;;;;;;;;;;5069795;28;20179;-58
2023/07/15 08:34:19;;;;;;;2.87;2.57;;;;;;;;;;5069495;28;20284;-57
2023/07/15 08:36:45;;;;;;;4.67;2.83;;;;;;;;;;5052323;28;20178;-57
2023/07/15 08:39:12;;;;;;;2.63;2.43;;;;;;;;;;5070420;28;20515;-57
2023/07/15 08:41:38;;;;;;;2.60;2.40;;;;;;;;;;5070242;28;20231;-57
2023/07/15 08:44:07;;;;;;;3.27;2.70;;;;;;;;;;5069942;28;20201;-57
2023/07/15 08:46:34;;;;;;;3.17;2.77;;;;;;;;;;5070018;28;20201;-58
2023/07/15 08:49:00;;;;;;;2.50;2.30;;;;;;;;;;5069092;28;20225;-58
2023/07/15 08:51:31;;;;;;;2.90;2.63;;;;;;;;;;5070477;28;20543;-57
2023/07/15 08:54:00;;;;;;;2.97;2.60;;;;;;;;;;5070239;28;20560;-57
2023/07/15 08:56:26;;;;;;;3.13;2.80;;;;;;;;;;5070273;28;20169;-57
2023/07/15 08:58:54;;;;;;;2.93;2.40;;;;;;;;;;5069341;28;20255;-57
2023/07/15 09:01:21;;;;;;;2.70;2.50;;;;;;;;;;5070063;28;20710;-57
2023/07/15 09:03:48;;;;;;;4.50;2.70;;;;;;;;;;5068444;28;20648;-58
2023/07/15 09:06:17;;;;;;;5.73;2.27;;;;;;;;;;5051818;28;20208;-57
2023/07/15 09:08:49;;;;;;;3.93;2.80;;;;;;;;;;5069213;28;20212;-58
2023/07/15 09:11:16;;;;;;;2.50;2.30;;;;;;;;;;5070077;28;20161;-57
2023/07/15 09:13:44;;;;;;;2.57;2.30;;;;;;;;;;5069239;28;20609;-57
2023/07/15 09:16:11;;;;;;;4.07;2.40;;;;;;;;;;5069506;28;20589;-58
2023/07/15 09:18:42;;;;;;;5.33;2.47;;;;;;;;;;5067538;28;20179;-57
2023/07/15 09:21:12;;;;;;;4.47;2.67;;;;;;;;;;5069886;28;20168;-58
2023/07/15 09:23:40;;;;;;;2.47;2.27;;;;;;;;;;5069398;28;20218;-58
2023/07/15 09:26:06;;;;;;;2.90;2.37;;;;;;;;;;5069616;28;20172;-58
2023/07/15 09:28:32;;;;;;;5.17;2.60;;;;;;;;;;5069117;28;20201;-59
2023/07/15 09:30:59;;;;;;;3.70;2.70;;;;;;;;;;5069385;28;20559;-59
2023/07/15 09:33:38;;;;;;;4.03;2.27;;;;;;;;;;5068406;28;20574;-59
2023/07/15 09:36:05;;;;;;;6.40;2.40;;;;;;;;;;5051658;28;20255;-58
2023/07/15 09:38:35;;;;;;;3.63;2.37;;;;;;;;;;5069208;28;20292;-58
2023/07/15 09:41:02;;;;;;;3.13;2.83;;;;;;;;;;5068834;28;20176;-58
2023/07/15 09:43:49;;;;;;;3.10;2.80;;;;;;;;;;5068944;28;20183;-57
2023/07/15 09:46:20;;;;;;;2.70;2.50;;;;;;;;;;5069069;28;20182;-58
2023/07/15 09:48:47;;;;;;;4.17;2.50;;;;;;;;;;5067571;28;20257;-59
2023/07/15 09:51:15;;;;;;;3.03;2.83;;;;;;;;;;5069135;28;20188;-58
2023/07/15 09:53:51;;;;;;;3.10;2.60;;;;;;;;;;5069050;28;20167;-58
2023/07/15 09:56:19;;;;;;;3.00;2.70;;;;;;;;;;5050850;28;20419;-57
2023/07/15 09:58:47;;;;;;;2.73;2.50;;;;;;;;;;5068342;28;20249;-58
2023/07/15 10:01:25;;;;;;;3.07;2.77;;;;;;;;;;5069143;28;20246;-58
2023/07/15 10:04:02;;;;;;;2.93;2.70;;;;;;;;;;5067420;28;20579;-56
2023/07/15 10:06:28;;;;;;;2.87;2.60;;;;;;;;;;5031196;28;20254;-58
2023/07/15 10:08:55;;;;;;;2.83;2.50;;;;;;;;;;5048489;28;20589;-58
2023/07/15 10:11:21;;;;;;;3.23;2.80;;;;;;;;;;5049279;28;20459;-58
2023/07/15 10:13:48;;;;;;;2.73;2.53;;;;;;;;;;5048775;28;20166;-57
2023/07/15 10:16:15;;;;;;;3.00;2.70;;;;;;;;;;5049117;28;20158;-56
2023/07/15 10:18:41;;;;;;;2.83;2.63;;;;;;;;;;5047318;28;20170;-57
2023/07/15 10:21:11;;;;;;;3.50;3.03;;;;;;;;;;5049464;28;20177;-57
2023/07/15 10:23:40;;;;;;;3.93;3.33;;;;;;;;;;5048923;28;20162;-57
2023/07/15 10:26:08;;;;;;;2.80;2.57;;;;;;;;;;5049363;28;20164;-57
2023/07/15 10:28:37;;;;;;;3.23;2.93;;;;;;;;;;5048484;28;20212;-57
2023/07/15 10:31:08;;;;;;;4.10;2.77;;;;;;;;;;5032286;28;20173;-57
2023/07/15 10:33:35;;;;;;;2.70;2.50;;;;;;;;;;5051243;28;20164;-58
2023/07/15 10:36:03;;;;;;;2.90;2.57;;;;;;;;;;5052787;28;20180;-58
2023/07/15 10:38:31;;;;;;;3.50;3.03;;;;;;;;;;5051520;28;20184;-57
2023/07/15 10:40:59;;;;;;;3.80;2.90;;;;;;;;;;5053201;28;20246;-57
2023/07/15 10:43:34;;;;;;;3.20;3.00;;;;;;;;;;5052391;28;20163;-56
2023/07/15 10:46:05;;;;;;;2.67;2.47;;;;;;;;;;5053032;28;20587;-56
2023/07/15 10:48:32;;;;;;;3.10;2.80;;;;;;;;;;5050942;28;20212;-58
2023/07/15 10:50:59;;;;;;;3.40;3.10;;;;;;;;;;5052516;28;20165;-57
2023/07/15 10:53:27;;;;;;;3.53;3.23;;;;;;;;;;5051930;28;20167;-57
2023/07/15 10:56:00;;;;;;;2.87;2.67;;;;;;;;;;5052563;28;20191;-57
2023/07/15 10:58:28;;;;;;;3.50;3.20;;;;;;;;;;5051716;28;20231;-57
2023/07/15 11:00:59;;;;;;;3.40;3.10;;;;;;;;;;5052839;28;20534;-57
2023/07/15 11:03:26;;;;;;;3.13;2.93;;;;;;;;;;5032997;28;20626;-58
2023/07/15 11:05:55;;;;;;;3.80;2.77;;;;;;;;;;5068613;28;20214;-57
2023/07/15 11:08:21;;;;;;;3.40;2.87;;;;;;;;;;5071651;28;20203;-58
2023/07/15 11:10:49;;;;;;;3.00;2.80;;;;;;;;;;5072199;28;20174;-58
2023/07/15 11:13:17;;;;;;;3.00;2.80;;;;;;;;;;5072030;28;20670;-57
2023/07/15 11:15:46;;;;;;;4.93;4.07;;;;;;;;;;5071771;28;20209;-58
2023/07/15 11:18:17;;;;;;;3.40;3.10;;;;;;;;;;5066435;28;20275;-57
2023/07/15 11:20:43;;;;;;;4.30;2.90;;;;;;;;;;5071645;28;20184;-56
2023/07/15 11:23:10;;;;;;;5.57;3.13;;;;;;;;;;5071825;28;20162;-57
2023/07/15 11:25:36;;;;;;;3.37;3.03;;;;;;;;;;5072346;28;20184;-57
2023/07/15 11:28:03;;;;;;;3.93;3.60;;;;;;;;;;5071630;28;20265;-56
2023/07/15 11:30:36;;;;;;;4.17;3.10;;;;;;;;;;5071989;28;20178;-57
2023/07/15 11:33:03;;;;;;;2.83;2.63;;;;;;;;;;5071236;28;20199;-58
2023/07/15 11:35:33;;;;;;;3.13;2.90;;;;;;;;;;5071849;28;20183;-58
2023/07/15 11:38:09;;;;;;;3.53;2.93;;;;;;;;;;5071745;28;20541;-59
2023/07/15 11:40:36;;;;;;;3.63;2.77;;;;;;;;;;5071607;28;20236;-58
2023/07/15 11:43:05;;;;;;;5.03;3.40;;;;;;;;;;5071061;28;20229;-57
2023/07/15 11:45:32;;;;;;;4.07;3.03;;;;;;;;;;5071812;28;20189;-58
2023/07/15 11:47:59;;;;;;;4.13;3.07;;;;;;;;;;5071926;28;20228;-57
2023/07/15 11:50:27;;;;;;;3.47;3.17;;;;;;;;;;5052399;28;20182;-57
2023/07/15 11:52:55;;;;;;;3.97;3.37;;;;;;;;;;5071359;28;20182;-57
2023/07/15 11:55:25;;;;;;;3.60;3.30;;;;;;;;;;5053216;28;20554;-57
2023/07/15 11:57:52;;;;;;;4.23;3.07;;;;;;;;;;5071008;28;20704;-57
2023/07/15 12:00:29;;;;;;;3.90;3.50;;;;;;;;;;5071007;28;20270;-57
2023/07/15 12:02:55;;;;;;;4.10;3.20;;;;;;;;;;5071840;28;20603;-57
2023/07/15 12:05:22;;;;;;;4.23;3.17;;;;;;;;;;5057804;28;20209;-58
2023/07/15 12:07:49;;;;;;;3.30;3.07;;;;;;;;;;5051598;28;20562;-57
2023/07/15 12:10:16;;;;;;;3.13;2.83;;;;;;;;;;5050917;28;20640;-58
2023/07/15 12:12:45;;;;;;;3.40;3.20;;;;;;;;;;5051094;28;20162;-57
2023/07/15 12:15:23;;;;;;;3.20;2.90;;;;;;;;;;5049601;28;20523;-58
2023/07/15 12:17:49;;;;;;;3.13;2.73;;;;;;;;;;5050932;28;20180;-58
2023/07/15 12:20:16;;;;;;;4.03;3.73;;;;;;;;;;5049690;28;20183;-57
2023/07/15 12:22:42;;;;;;;3.17;2.90;;;;;;;;;;5051213;28;20203;-57
2023/07/15 12:25:10;;;;;;;3.10;2.90;;;;;;;;;;5050592;28;20168;-58
2023/07/15 12:27:37;;;;;;;2.77;2.57;;;;;;;;;;5051253;28;20269;-57
2023/07/15 12:30:03;;;;;;;3.07;2.77;;;;;;;;;;5050604;28;20188;-57
2023/07/15 12:32:30;;;;;;;2.67;2.47;;;;;;;;;;5051024;28;20210;-57
2023/07/15 12:34:57;;;;;;;3.40;3.00;;;;;;;;;;5049538;28;20165;-58
2023/07/15 12:37:23;;;;;;;3.40;3.10;;;;;;;;;;5050627;28;20192;-59
2023/07/15 12:39:49;;;;;;;3.27;3.03;;;;;;;;;;5050181;28;20172;-59
2023/07/15 12:42:18;;;;;;;3.63;2.87;;;;;;;;;;5050485;28;20211;-57
2023/07/15 12:44:45;;;;;;;2.90;2.70;;;;;;;;;;5050588;28;20681;-57
2023/07/15 12:47:12;;;;;;;3.70;3.40;;;;;;;;;;5050473;28;20195;-58
2023/07/15 12:49:38;;;;;;;3.20;3.00;;;;;;;;;;5048593;28;20175;-58
2023/07/15 12:52:04;;;;;;;3.53;2.90;;;;;;;;;;5050630;28;20157;-57
2023/07/15 12:54:31;;;;;;;3.57;3.07;;;;;;;;;;5049482;28;20638;-60
2023/07/15 12:56:58;;;;;;;3.33;3.03;;;;;;;;;;5050318;28;20223;-57
2023/07/15 12:59:24;;;;;;;4.67;3.10;;;;;;;;;;5050044;28;20642;-58
2023/07/15 13:01:50;;;;;;;3.90;3.50;;;;;;;;;;5050542;28;20196;-58
2023/07/15 13:04:17;;;;;;;3.70;3.03;;;;;;;;;;5052217;28;20193;-58
2023/07/15 13:06:43;;;;;;;3.57;3.27;;;;;;;;;;5070248;28;20182;-58
2023/07/15 13:09:09;;;;;;;3.60;3.30;;;;;;;;;;5072286;28;20285;-57
2023/07/15 13:11:36;;;;;;;4.23;3.20;;;;;;;;;;5071330;28;20159;-58
2023/07/15 13:14:03;;;;;;;3.87;3.47;;;;;;;;;;5069588;28;20908;-58
2023/07/15 13:16:29;;;;;;;3.93;3.53;;;;;;;;;;5070175;28;20260;-59
2023/07/15 13:18:58;;;;;;;2.90;2.70;;;;;;;;;;5069463;28;20180;-57
2023/07/15 13:21:25;;;;;;;3.50;3.10;;;;;;;;;;5069649;28;20208;-57
2023/07/15 13:23:56;;;;;;;3.50;3.17;;;;;;;;;;5070406;28;20584;-58
2023/07/15 13:26:25;;;;;;;4.03;3.40;;;;;;;;;;5070000;28;20171;-57
2023/07/15 13:28:51;;;;;;;3.73;3.00;;;;;;;;;;5069568;28;20231;-59
2023/07/15 13:31:18;;;;;;;3.80;3.50;;;;;;;;;;5070042;28;20184;-58
2023/07/15 13:33:44;;;;;;;3.30;3.03;;;;;;;;;;5069294;28;20192;-57
2023/07/15 13:36:11;;;;;;;4.23;3.43;;;;;;;;;;5069256;28;20181;-59
2023/07/15 13:38:38;;;;;;;3.43;3.13;;;;;;;;;;5070062;28;20186;-59
2023/07/15 13:41:04;;;;;;;4.03;2.97;;;;;;;;;;5069688;28;20194;-58
2023/07/15 13:43:31;;;;;;;3.37;3.07;;;;;;;;;;5069200;28;20604;-58
2023/07/15 13:46:00;;;;;;;3.60;3.30;;;;;;;;;;5068698;28;20177;-58
2023/07/15 13:48:26;;;;;;;3.43;3.20;;;;;;;;;;5068757;28;20353;-58
2023/07/15 13:50:53;;;;;;;4.20;3.37;;;;;;;;;;5068993;28;20198;-58
2023/07/15 13:53:19;;;;;;;3.77;3.00;;;;;;;;;;5069930;28;20293;-58
2023/07/15 13:55:45;;;;;;;3.73;3.40;;;;;;;;;;5069700;28;20251;-58
2023/07/15 13:58:12;;;;;;;3.10;2.90;;;;;;;;;;5069173;28;20229;-58
2023/07/15 14:00:38;;;;;;;3.40;3.10;;;;;;;;;;5069832;28;20229;-58
2023/07/15 14:03:04;;;;;;;4.00;3.47;;;;;;;;;;5069227;28;20185;-58
2023/07/15 14:05:30;;;;;;;4.00;3.67;;;;;;;;;;5068919;28;20235;-59
2023/07/15 14:07:57;;;;;;;5.30;3.20;;;;;;;;;;5069666;28;20677;-57
2023/07/15 14:10:24;;;;;;;3.63;3.33;;;;;;;;;;5069136;28;20198;-57
2023/07/15 14:12:50;;;;;;;3.30;3.07;;;;;;;;;;5069663;28;20168;-59
2023/07/15 14:15:17;;;;;;;3.63;3.33;;;;;;;;;;5069044;28;20187;-57
2023/07/15 14:17:43;;;;;;;4.10;3.50;;;;;;;;;;5069798;28;20173;-57
2023/07/15 14:20:09;;;;;;;5.20;4.80;;;;;;;;;;5068300;28;20565;-61
2023/07/15 14:22:36;;;;;;;5.00;3.20;;;;;;;;;;5069781;28;20174;-57
2023/07/15 14:25:02;;;;;;;4.10;3.70;;;;;;;;;;5069344;28;20166;-58
2023/07/15 14:27:28;;;;;;;3.77;3.13;;;;;;;;;;5069250;28;20207;-58
2023/07/15 14:29:58;;;;;;;5.33;3.63;;;;;;;;;;5050827;28;20531;-58
2023/07/15 14:32:24;;;;;;;4.67;4.27;;;;;;;;;;5069165;28;20198;-57
2023/07/15 14:34:50;;;;;;;3.50;3.20;;;;;;;;;;5068104;28;20231;-60
2023/07/15 14:37:17;;;;;;;4.30;3.90;;;;;;;;;;5069236;28;20165;-57
2023/07/15 14:39:43;;;;;;;4.47;3.60;;;;;;;;;;5068954;28;20196;-57
2023/07/15 14:42:09;;;;;;;3.77;3.37;;;;;;;;;;5050177;28;20188;-58
2023/07/15 14:44:36;;;;;;;3.40;3.15;;;;;;;;;;5069202;28;20191;-58